sensor_id;sensor_type;location;lat;lon;timestamp;temperature;humidity
5576;DHT22;2810;50.134;8.626;2023-03-18T00:01:57;10.30;99.90
5576;DHT22;2810;50.134;8.626;2023-03-18T00:04:23;10.30;99.90
5576;DHT22;2810;50.134;8.626;2023-03-18T00:06:48;10.40;99.90
5576;DHT22;2810;50.134;8.626;2023-03-18T00:09:14;10.40;99.90
5576;DHT22;2810;50.134;8.626;2023-03-18T00:11:40;10.40;99.90
5576;DHT22;2810;50.134;8.626;2023-03-18T00:14:06;10.50;99.90
5576;DHT22;2810;50.134;8.626;2023-03-18T00:16:33;10.50;99.90
5576;DHT22;2810;50.134;8.626;2023-03-18T00:18:59;10.60;99.90
5576;DHT22;2810;50.134;8.626;2023-03-18T00:21:26;10.60;99.90
5576;DHT22;2810;50.134;8.626;2023-03-18T00:23:52;10.60;99.90
5576;DHT22;2810;50.134;8.626;2023-03-18T00:26:20;10.70;99.90
5576;DHT22;2810;50.134;8.626;2023-03-18T00:28:46;10.70;99.90
5576;DHT22;2810;50.134;8.626;2023-03-18T00:31:12;10.70;99.90
5576;DHT22;2810;50.134;8.626;2023-03-18T00:33:38;10.70;99.90
5576;DHT22;2810;50.134;8.626;2023-03-18T00:36:05;10.70;99.90
5576;DHT22;2810;50.134;8.626;2023-03-18T00:38:31;10.70;99.90
5576;DHT22;2810;50.134;8.626;2023-03-18T00:40:57;10.70;99.90
5576;DHT22;2810;50.134;8.626;2023-03-18T00:43:29;10.70;99.90
5576;DHT22;2810;50.134;8.626;2023-03-18T00:45:58;10.70;99.90
5576;DHT22;2810;50.134;8.626;2023-03-18T00:48:23;10.70;99.90
5576;DHT22;2810;50.134;8.626;2023-03-18T00:50:49;10.70;99.90
5576;DHT22;2810;50.134;8.626;2023-03-18T00:53:15;10.80;99.90
5576;DHT22;2810;50.134;8.626;2023-03-18T00:55:41;10.70;99.90
5576;DHT22;2810;50.134;8.626;2023-03-18T00:58:07;10.70;99.90
5576;DHT22;2810;50.134;8.626;2023-03-18T01:00:33;10.70;99.90
5576;DHT22;2810;50.134;8.626;2023-03-18T01:02:59;10.70;99.90
5576;DHT22;2810;50.134;8.626;2023-03-18T01:05:25;10.70;99.90
5576;DHT22;2810;50.134;8.626;2023-03-18T01:07:51;11.00;99.90
5576;DHT22;2810;50.134;8.626;2023-03-18T01:10:17;10.60;99.90
5576;DHT22;2810;50.134;8.626;2023-03-18T01:12:44;10.50;99.90
5576;DHT22;2810;50.134;8.626;2023-03-18T01:15:13;10.50;99.90
5576;DHT22;2810;50.134;8.626;2023-03-18T01:17:39;10.50;99.90
5576;DHT22;2810;50.134;8.626;2023-03-18T01:20:05;10.50;99.90
5576;DHT22;2810;50.134;8.626;2023-03-18T01:22:30;10.40;99.90
5576;DHT22;2810;50.134;8.626;2023-03-18T01:24:56;10.40;99.90
5576;DHT22;2810;50.134;8.626;2023-03-18T01:27:23;10.30;99.90
5576;DHT22;2810;50.134;8.626;2023-03-18T01:29:48;10.30;99.90
5576;DHT22;2810;50.134;8.626;2023-03-18T01:32:14;10.30;99.90
5576;DHT22;2810;50.134;8.626;2023-03-18T01:34:40;10.40;99.90
5576;DHT22;2810;50.134;8.626;2023-03-18T01:37:06;10.20;99.90
5576;DHT22;2810;50.134;8.626;2023-03-18T01:39:31;10.20;99.90
5576;DHT22;2810;50.134;8.626;2023-03-18T01:41:58;10.00;99.90
5576;DHT22;2810;50.134;8.626;2023-03-18T01:44:24;10.10;99.90
5576;DHT22;2810;50.134;8.626;2023-03-18T01:46:50;10.00;99.90
5576;DHT22;2810;50.134;8.626;2023-03-18T01:49:20;10.00;99.90
5576;DHT22;2810;50.134;8.626;2023-03-18T01:51:53;9.90;99.90
5576;DHT22;2810;50.134;8.626;2023-03-18T01:54:20;9.90;99.90
5576;DHT22;2810;50.134;8.626;2023-03-18T01:56:47;9.90;99.90
5576;DHT22;2810;50.134;8.626;2023-03-18T01:59:12;9.90;99.90
5576;DHT22;2810;50.134;8.626;2023-03-18T02:04:14;9.80;99.90
5576;DHT22;2810;50.134;8.626;2023-03-18T02:06:41;9.70;99.90
5576;DHT22;2810;50.134;8.626;2023-03-18T02:09:06;9.80;99.90
5576;DHT22;2810;50.134;8.626;2023-03-18T02:11:33;9.70;99.90
5576;DHT22;2810;50.134;8.626;2023-03-18T02:13:59;9.70;99.90
5576;DHT22;2810;50.134;8.626;2023-03-18T02:16:27;9.70;99.90
5576;DHT22;2810;50.134;8.626;2023-03-18T02:18:53;9.70;99.90
5576;DHT22;2810;50.134;8.626;2023-03-18T02:26:19;9.60;99.90
5576;DHT22;2810;50.134;8.626;2023-03-18T02:28:47;9.60;99.90
5576;DHT22;2810;50.134;8.626;2023-03-18T02:31:14;9.60;99.90
5576;DHT22;2810;50.134;8.626;2023-03-18T02:33:40;9.60;99.90
5576;DHT22;2810;50.134;8.626;2023-03-18T02:36:28;9.60;99.90
5576;DHT22;2810;50.134;8.626;2023-03-18T02:38:53;9.60;99.90
5576;DHT22;2810;50.134;8.626;2023-03-18T02:41:29;9.60;99.90
5576;DHT22;2810;50.134;8.626;2023-03-18T02:43:56;9.60;99.90
5576;DHT22;2810;50.134;8.626;2023-03-18T02:46:28;9.50;99.90
5576;DHT22;2810;50.134;8.626;2023-03-18T02:48:55;9.50;99.90
5576;DHT22;2810;50.134;8.626;2023-03-18T02:51:21;9.50;99.90
5576;DHT22;2810;50.134;8.626;2023-03-18T02:53:47;9.50;99.90
5576;DHT22;2810;50.134;8.626;2023-03-18T02:56:13;9.50;99.90
5576;DHT22;2810;50.134;8.626;2023-03-18T02:58:39;9.50;99.90
5576;DHT22;2810;50.134;8.626;2023-03-18T03:01:05;9.50;99.90
5576;DHT22;2810;50.134;8.626;2023-03-18T03:03:32;9.40;99.90
5576;DHT22;2810;50.134;8.626;2023-03-18T03:05:59;9.40;99.90
5576;DHT22;2810;50.134;8.626;2023-03-18T03:08:25;9.40;99.90
5576;DHT22;2810;50.134;8.626;2023-03-18T03:10:51;9.40;99.90
5576;DHT22;2810;50.134;8.626;2023-03-18T03:13:17;9.30;99.90
5576;DHT22;2810;50.134;8.626;2023-03-18T03:15:43;9.30;99.90
5576;DHT22;2810;50.134;8.626;2023-03-18T03:18:08;9.40;99.90
5576;DHT22;2810;50.134;8.626;2023-03-18T03:20:34;9.40;99.90
5576;DHT22;2810;50.134;8.626;2023-03-18T03:23:02;9.30;99.90
5576;DHT22;2810;50.134;8.626;2023-03-18T03:25:28;9.30;99.90
5576;DHT22;2810;50.134;8.626;2023-03-18T03:27:54;9.30;99.90
5576;DHT22;2810;50.134;8.626;2023-03-18T03:30:19;9.30;99.90
5576;DHT22;2810;50.134;8.626;2023-03-18T03:32:45;9.30;99.90
5576;DHT22;2810;50.134;8.626;2023-03-18T03:35:15;9.20;99.90
5576;DHT22;2810;50.134;8.626;2023-03-18T03:37:41;9.20;99.90
5576;DHT22;2810;50.134;8.626;2023-03-18T03:40:11;9.20;99.90
5576;DHT22;2810;50.134;8.626;2023-03-18T03:42:37;9.30;99.90
5576;DHT22;2810;50.134;8.626;2023-03-18T03:45:03;9.20;99.90
5576;DHT22;2810;50.134;8.626;2023-03-18T03:47:30;9.20;99.90
5576;DHT22;2810;50.134;8.626;2023-03-18T03:49:55;9.20;99.90
5576;DHT22;2810;50.134;8.626;2023-03-18T03:52:21;9.20;99.90
5576;DHT22;2810;50.134;8.626;2023-03-18T03:54:47;9.20;99.90
5576;DHT22;2810;50.134;8.626;2023-03-18T03:57:12;9.20;99.90
5576;DHT22;2810;50.134;8.626;2023-03-18T03:59:38;9.40;99.90
5576;DHT22;2810;50.134;8.626;2023-03-18T04:02:03;9.20;99.90
5576;DHT22;2810;50.134;8.626;2023-03-18T04:04:29;9.20;99.90
5576;DHT22;2810;50.134;8.626;2023-03-18T04:06:54;9.20;99.90
5576;DHT22;2810;50.134;8.626;2023-03-18T04:09:20;9.30;99.90
5576;DHT22;2810;50.134;8.626;2023-03-18T04:11:45;9.30;99.90
5576;DHT22;2810;50.134;8.626;2023-03-18T04:14:11;9.30;99.90
5576;DHT22;2810;50.134;8.626;2023-03-18T04:16:37;9.20;99.90
5576;DHT22;2810;50.134;8.626;2023-03-18T04:19:02;9.20;99.90
5576;DHT22;2810;50.134;8.626;2023-03-18T04:21:28;9.20;99.90
5576;DHT22;2810;50.134;8.626;2023-03-18T04:23:54;9.10;99.90
5576;DHT22;2810;50.134;8.626;2023-03-18T04:26:21;9.00;99.90
5576;DHT22;2810;50.134;8.626;2023-03-18T04:28:47;8.90;99.90
5576;DHT22;2810;50.134;8.626;2023-03-18T04:31:12;8.90;99.90
5576;DHT22;2810;50.134;8.626;2023-03-18T04:33:39;8.90;99.90
5576;DHT22;2810;50.134;8.626;2023-03-18T04:36:05;8.80;99.90
5576;DHT22;2810;50.134;8.626;2023-03-18T04:38:30;8.70;99.90
5576;DHT22;2810;50.134;8.626;2023-03-18T04:40:57;8.60;99.90
5576;DHT22;2810;50.134;8.626;2023-03-18T04:43:22;9.00;99.90
5576;DHT22;2810;50.134;8.626;2023-03-18T04:45:48;8.50;99.90
5576;DHT22;2810;50.134;8.626;2023-03-18T04:48:13;8.50;99.90
5576;DHT22;2810;50.134;8.626;2023-03-18T04:50:39;8.50;99.90
5576;DHT22;2810;50.134;8.626;2023-03-18T04:53:05;8.50;99.90
5576;DHT22;2810;50.134;8.626;2023-03-18T04:55:30;8.40;99.90
5576;DHT22;2810;50.134;8.626;2023-03-18T04:57:56;8.40;99.90
5576;DHT22;2810;50.134;8.626;2023-03-18T05:00:21;8.40;99.90
5576;DHT22;2810;50.134;8.626;2023-03-18T05:02:47;8.40;99.90
5576;DHT22;2810;50.134;8.626;2023-03-18T05:05:13;8.30;99.90
5576;DHT22;2810;50.134;8.626;2023-03-18T05:07:39;8.40;99.90
5576;DHT22;2810;50.134;8.626;2023-03-18T05:10:05;8.40;99.90
5576;DHT22;2810;50.134;8.626;2023-03-18T05:12:33;8.40;99.90
5576;DHT22;2810;50.134;8.626;2023-03-18T05:14:59;8.50;99.90
5576;DHT22;2810;50.134;8.626;2023-03-18T05:17:25;8.50;99.90
5576;DHT22;2810;50.134;8.626;2023-03-18T05:19:51;8.50;99.90
5576;DHT22;2810;50.134;8.626;2023-03-18T05:22:16;8.50;99.90
5576;DHT22;2810;50.134;8.626;2023-03-18T05:24:42;8.50;99.90
5576;DHT22;2810;50.134;8.626;2023-03-18T05:27:10;8.50;99.90
5576;DHT22;2810;50.134;8.626;2023-03-18T05:29:36;8.50;99.90
5576;DHT22;2810;50.134;8.626;2023-03-18T05:32:03;8.60;99.90
5576;DHT22;2810;50.134;8.626;2023-03-18T05:34:31;8.60;99.90
5576;DHT22;2810;50.134;8.626;2023-03-18T05:36:57;8.60;99.90
5576;DHT22;2810;50.134;8.626;2023-03-18T05:39:22;8.60;99.90
5576;DHT22;2810;50.134;8.626;2023-03-18T05:41:48;8.60;99.90
5576;DHT22;2810;50.134;8.626;2023-03-18T05:44:13;8.60;99.90
5576;DHT22;2810;50.134;8.626;2023-03-18T05:46:39;8.60;99.90
5576;DHT22;2810;50.134;8.626;2023-03-18T05:49:04;8.60;99.90
5576;DHT22;2810;50.134;8.626;2023-03-18T05:51:30;8.70;99.90
5576;DHT22;2810;50.134;8.626;2023-03-18T05:53:56;8.60;99.90
5576;DHT22;2810;50.134;8.626;2023-03-18T05:56:21;8.70;99.90
5576;DHT22;2810;50.134;8.626;2023-03-18T05:58:49;8.70;99.90
5576;DHT22;2810;50.134;8.626;2023-03-18T06:01:15;8.70;99.90
5576;DHT22;2810;50.134;8.626;2023-03-18T06:03:40;9.20;99.90
5576;DHT22;2810;50.134;8.626;2023-03-18T06:06:06;8.80;99.90
5576;DHT22;2810;50.134;8.626;2023-03-18T06:08:33;8.80;99.90
5576;DHT22;2810;50.134;8.626;2023-03-18T06:10:58;8.80;99.90
5576;DHT22;2810;50.134;8.626;2023-03-18T06:13:23;8.80;99.90
5576;DHT22;2810;50.134;8.626;2023-03-18T06:15:55;8.90;99.90
5576;DHT22;2810;50.134;8.626;2023-03-18T06:18:20;9.20;99.90
5576;DHT22;2810;50.134;8.626;2023-03-18T06:20:46;8.90;99.90
5576;DHT22;2810;50.134;8.626;2023-03-18T06:23:11;9.30;99.90
5576;DHT22;2810;50.134;8.626;2023-03-18T06:25:37;9.00;99.90
5576;DHT22;2810;50.134;8.626;2023-03-18T06:28:03;9.00;99.90
5576;DHT22;2810;50.134;8.626;2023-03-18T06:30:28;9.00;99.90
5576;DHT22;2810;50.134;8.626;2023-03-18T06:32:54;9.30;99.90
5576;DHT22;2810;50.134;8.626;2023-03-18T06:35:20;9.20;99.90
5576;DHT22;2810;50.134;8.626;2023-03-18T06:37:46;9.20;99.90
5576;DHT22;2810;50.134;8.626;2023-03-18T06:40:11;9.20;99.90
5576;DHT22;2810;50.134;8.626;2023-03-18T06:42:37;9.30;99.90
5576;DHT22;2810;50.134;8.626;2023-03-18T06:45:02;9.20;99.90
5576;DHT22;2810;50.134;8.626;2023-03-18T06:47:28;9.20;99.90
5576;DHT22;2810;50.134;8.626;2023-03-18T06:49:53;9.20;99.90
5576;DHT22;2810;50.134;8.626;2023-03-18T06:52:20;9.30;99.90
5576;DHT22;2810;50.134;8.626;2023-03-18T06:54:45;9.30;99.90
5576;DHT22;2810;50.134;8.626;2023-03-18T06:57:11;9.30;99.90
5576;DHT22;2810;50.134;8.626;2023-03-18T06:59:37;9.30;99.90
5576;DHT22;2810;50.134;8.626;2023-03-18T07:02:03;9.20;99.90
5576;DHT22;2810;50.134;8.626;2023-03-18T07:04:30;9.20;99.90
5576;DHT22;2810;50.134;8.626;2023-03-18T07:06:55;9.20;99.90
5576;DHT22;2810;50.134;8.626;2023-03-18T07:09:22;9.20;99.90
5576;DHT22;2810;50.134;8.626;2023-03-18T07:11:49;9.40;99.90
5576;DHT22;2810;50.134;8.626;2023-03-18T07:14:14;10.30;99.90
5576;DHT22;2810;50.134;8.626;2023-03-18T07:16:40;11.40;99.90
5576;DHT22;2810;50.134;8.626;2023-03-18T07:19:05;12.30;99.90
5576;DHT22;2810;50.134;8.626;2023-03-18T07:21:31;12.80;99.90
5576;DHT22;2810;50.134;8.626;2023-03-18T07:23:57;14.00;99.90
5576;DHT22;2810;50.134;8.626;2023-03-18T07:26:22;15.00;99.90
5576;DHT22;2810;50.134;8.626;2023-03-18T07:28:48;16.10;99.90
5576;DHT22;2810;50.134;8.626;2023-03-18T07:31:13;17.20;99.90
5576;DHT22;2810;50.134;8.626;2023-03-18T07:33:39;17.90;99.90
5576;DHT22;2810;50.134;8.626;2023-03-18T07:36:04;18.60;99.90
5576;DHT22;2810;50.134;8.626;2023-03-18T07:38:30;18.90;99.90
5576;DHT22;2810;50.134;8.626;2023-03-18T07:40:55;19.40;99.90
5576;DHT22;2810;50.134;8.626;2023-03-18T07:43:22;19.70;99.90
5576;DHT22;2810;50.134;8.626;2023-03-18T07:45:47;20.30;99.90
5576;DHT22;2810;50.134;8.626;2023-03-18T07:48:13;20.50;99.90
5576;DHT22;2810;50.134;8.626;2023-03-18T07:50:38;20.70;99.80
5576;DHT22;2810;50.134;8.626;2023-03-18T07:53:05;21.20;97.20
5576;DHT22;2810;50.134;8.626;2023-03-18T07:55:30;21.10;97.50
5576;DHT22;2810;50.134;8.626;2023-03-18T07:57:56;21.20;95.50
5576;DHT22;2810;50.134;8.626;2023-03-18T08:00:22;21.20;93.80
5576;DHT22;2810;50.134;8.626;2023-03-18T08:02:48;20.80;95.70
5576;DHT22;2810;50.134;8.626;2023-03-18T08:05:14;20.90;94.00
5576;DHT22;2810;50.134;8.626;2023-03-18T08:07:40;20.90;93.90
5576;DHT22;2810;50.134;8.626;2023-03-18T08:10:05;21.40;93.70
5576;DHT22;2810;50.134;8.626;2023-03-18T08:12:31;21.40;90.60
5576;DHT22;2810;50.134;8.626;2023-03-18T08:14:56;21.60;86.80
5576;DHT22;2810;50.134;8.626;2023-03-18T08:17:24;21.40;86.30
5576;DHT22;2810;50.134;8.626;2023-03-18T08:19:49;21.30;85.20
5576;DHT22;2810;50.134;8.626;2023-03-18T08:22:15;21.40;86.60
5576;DHT22;2810;50.134;8.626;2023-03-18T08:24:40;21.30;86.20
5576;DHT22;2810;50.134;8.626;2023-03-18T08:27:07;21.80;86.30
5576;DHT22;2810;50.134;8.626;2023-03-18T08:29:33;22.30;82.60
5576;DHT22;2810;50.134;8.626;2023-03-18T08:31:59;22.30;81.50
5576;DHT22;2810;50.134;8.626;2023-03-18T08:34:25;22.70;81.20
5576;DHT22;2810;50.134;8.626;2023-03-18T08:36:51;22.70;79.60
5576;DHT22;2810;50.134;8.626;2023-03-18T08:39:16;23.10;80.80
5576;DHT22;2810;50.134;8.626;2023-03-18T08:41:41;23.20;76.10
5576;DHT22;2810;50.134;8.626;2023-03-18T08:44:07;23.50;76.30
5576;DHT22;2810;50.134;8.626;2023-03-18T08:46:38;23.80;75.50
5576;DHT22;2810;50.134;8.626;2023-03-18T08:49:04;23.80;71.00
5576;DHT22;2810;50.134;8.626;2023-03-18T08:51:30;23.20;70.40
5576;DHT22;2810;50.134;8.626;2023-03-18T08:53:56;22.50;73.70
5576;DHT22;2810;50.134;8.626;2023-03-18T08:56:22;22.70;72.80
5576;DHT22;2810;50.134;8.626;2023-03-18T08:58:48;22.80;71.90
5576;DHT22;2810;50.134;8.626;2023-03-18T09:01:13;23.50;69.60
5576;DHT22;2810;50.134;8.626;2023-03-18T09:03:39;24.30;69.70
5576;DHT22;2810;50.134;8.626;2023-03-18T09:06:05;24.20;68.30
5576;DHT22;2810;50.134;8.626;2023-03-18T09:08:30;24.20;66.50
5576;DHT22;2810;50.134;8.626;2023-03-18T09:10:56;24.70;65.90
5576;DHT22;2810;50.134;8.626;2023-03-18T09:13:22;24.50;63.20
5576;DHT22;2810;50.134;8.626;2023-03-18T09:15:48;24.30;62.70
5576;DHT22;2810;50.134;8.626;2023-03-18T09:18:14;23.90;61.60
5576;DHT22;2810;50.134;8.626;2023-03-18T09:20:40;23.40;63.00
5576;DHT22;2810;50.134;8.626;2023-03-18T09:23:07;23.10;65.00
5576;DHT22;2810;50.134;8.626;2023-03-18T09:25:33;23.70;63.20
5576;DHT22;2810;50.134;8.626;2023-03-18T09:27:59;23.60;61.60
5576;DHT22;2810;50.134;8.626;2023-03-18T09:30:25;23.50;61.30
5576;DHT22;2810;50.134;8.626;2023-03-18T09:32:50;23.40;59.60
5576;DHT22;2810;50.134;8.626;2023-03-18T09:35:16;23.10;62.10
5576;DHT22;2810;50.134;8.626;2023-03-18T09:37:41;23.50;60.70
5576;DHT22;2810;50.134;8.626;2023-03-18T09:40:11;23.60;59.70
5576;DHT22;2810;50.134;8.626;2023-03-18T09:42:43;23.20;61.10
5576;DHT22;2810;50.134;8.626;2023-03-18T09:45:21;23.20;60.00
5576;DHT22;2810;50.134;8.626;2023-03-18T09:53:12;22.70;59.40
5576;DHT22;2810;50.134;8.626;2023-03-18T09:55:41;22.70;60.30
5576;DHT22;2810;50.134;8.626;2023-03-18T10:01:08;23.10;59.60
5576;DHT22;2810;50.134;8.626;2023-03-18T10:03:42;23.20;59.90
5576;DHT22;2810;50.134;8.626;2023-03-18T10:06:14;23.00;60.30
5576;DHT22;2810;50.134;8.626;2023-03-18T10:08:42;23.20;61.60
5576;DHT22;2810;50.134;8.626;2023-03-18T10:11:18;23.70;58.50
5576;DHT22;2810;50.134;8.626;2023-03-18T10:16:20;24.20;57.50
5576;DHT22;2810;50.134;8.626;2023-03-18T10:18:46;24.30;58.60
5576;DHT22;2810;50.134;8.626;2023-03-18T10:21:24;24.30;58.40
5576;DHT22;2810;50.134;8.626;2023-03-18T10:28:54;24.30;57.60
5576;DHT22;2810;50.134;8.626;2023-03-18T10:31:25;24.70;57.10
5576;DHT22;2810;50.134;8.626;2023-03-18T10:33:56;24.70;57.30
5576;DHT22;2810;50.134;8.626;2023-03-18T10:36:35;25.00;56.50
5576;DHT22;2810;50.134;8.626;2023-03-18T10:39:02;25.10;56.20
5576;DHT22;2810;50.134;8.626;2023-03-18T10:41:32;26.10;56.10
5576;DHT22;2810;50.134;8.626;2023-03-18T10:44:01;25.70;54.90
5576;DHT22;2810;50.134;8.626;2023-03-18T10:46:26;24.60;55.70
5576;DHT22;2810;50.134;8.626;2023-03-18T10:48:53;23.60;58.10
5576;DHT22;2810;50.134;8.626;2023-03-18T10:51:31;23.20;59.50
5576;DHT22;2810;50.134;8.626;2023-03-18T10:56:42;24.40;57.50
5576;DHT22;2810;50.134;8.626;2023-03-18T10:59:12;25.10;58.40
5576;DHT22;2810;50.134;8.626;2023-03-18T11:01:40;25.50;57.80
5576;DHT22;2810;50.134;8.626;2023-03-18T11:04:08;25.60;56.60
5576;DHT22;2810;50.134;8.626;2023-03-18T11:06:39;24.80;57.80
5576;DHT22;2810;50.134;8.626;2023-03-18T11:09:10;24.60;57.00
5576;DHT22;2810;50.134;8.626;2023-03-18T11:11:38;24.60;57.10
5576;DHT22;2810;50.134;8.626;2023-03-18T11:14:04;25.30;57.30
5576;DHT22;2810;50.134;8.626;2023-03-18T11:16:44;26.10;57.30
5576;DHT22;2810;50.134;8.626;2023-03-18T11:21:58;26.60;54.90
5576;DHT22;2810;50.134;8.626;2023-03-18T11:24:26;25.80;54.90
5576;DHT22;2810;50.134;8.626;2023-03-18T11:27:03;25.10;56.50
5576;DHT22;2810;50.134;8.626;2023-03-18T11:29:31;25.30;57.50
5576;DHT22;2810;50.134;8.626;2023-03-18T11:31:58;25.50;57.20
5576;DHT22;2810;50.134;8.626;2023-03-18T11:34:24;25.50;55.70
5576;DHT22;2810;50.134;8.626;2023-03-18T11:36:55;25.10;55.30
5576;DHT22;2810;50.134;8.626;2023-03-18T11:39:23;24.90;57.00
5576;DHT22;2810;50.134;8.626;2023-03-18T11:41:50;25.30;56.10
5576;DHT22;2810;50.134;8.626;2023-03-18T11:44:24;25.00;55.60
5576;DHT22;2810;50.134;8.626;2023-03-18T11:46:54;24.50;56.00
5576;DHT22;2810;50.134;8.626;2023-03-18T11:49:22;24.00;56.60
5576;DHT22;2810;50.134;8.626;2023-03-18T11:51:53;24.20;56.90
5576;DHT22;2810;50.134;8.626;2023-03-18T11:54:31;24.20;57.30
5576;DHT22;2810;50.134;8.626;2023-03-18T11:57:00;24.60;57.30
5576;DHT22;2810;50.134;8.626;2023-03-18T12:04:21;23.50;59.00
5576;DHT22;2810;50.134;8.626;2023-03-18T12:10:00;21.70;66.30
5576;DHT22;2810;50.134;8.626;2023-03-18T12:12:16;21.40;67.10
5576;DHT22;2810;50.134;8.626;2023-03-18T12:22:47;19.80;73.50
5576;DHT22;2810;50.134;8.626;2023-03-18T12:25:19;19.90;73.70
5576;DHT22;2810;50.134;8.626;2023-03-18T12:27:50;20.10;74.20
5576;DHT22;2810;50.134;8.626;2023-03-18T12:30:32;20.10;71.10
5576;DHT22;2810;50.134;8.626;2023-03-18T12:33:44;19.60;72.50
5576;DHT22;2810;50.134;8.626;2023-03-18T12:38:52;19.50;75.40
5576;DHT22;2810;50.134;8.626;2023-03-18T12:46:52;21.40;68.90
5576;DHT22;2810;50.134;8.626;2023-03-18T12:49:20;20.80;68.90
5576;DHT22;2810;50.134;8.626;2023-03-18T12:51:49;20.90;69.80
5576;DHT22;2810;50.134;8.626;2023-03-18T12:54:20;21.30;69.80
5576;DHT22;2810;50.134;8.626;2023-03-18T12:56:48;21.40;68.30
5576;DHT22;2810;50.134;8.626;2023-03-18T12:59:22;21.40;68.90
5576;DHT22;2810;50.134;8.626;2023-03-18T13:02:09;21.10;69.60
5576;DHT22;2810;50.134;8.626;2023-03-18T13:04:38;21.10;72.50
5576;DHT22;2810;50.134;8.626;2023-03-18T13:09:44;20.50;72.40
5576;DHT22;2810;50.134;8.626;2023-03-18T13:14:49;20.60;72.80
5576;DHT22;2810;50.134;8.626;2023-03-18T13:17:21;20.50;71.90
5576;DHT22;2810;50.134;8.626;2023-03-18T13:19:48;20.40;73.70
5576;DHT22;2810;50.134;8.626;2023-03-18T13:24:49;20.00;74.70
5576;DHT22;2810;50.134;8.626;2023-03-18T13:30:16;19.80;77.00
5576;DHT22;2810;50.134;8.626;2023-03-18T13:35:21;19.70;78.60
5576;DHT22;2810;50.134;8.626;2023-03-18T13:42:56;19.70;78.00
5576;DHT22;2810;50.134;8.626;2023-03-18T13:45:41;19.70;76.30
5576;DHT22;2810;50.134;8.626;2023-03-18T13:48:15;19.50;75.80
5576;DHT22;2810;50.134;8.626;2023-03-18T13:50:46;19.40;76.10
5576;DHT22;2810;50.134;8.626;2023-03-18T13:53:32;19.30;76.80
5576;DHT22;2810;50.134;8.626;2023-03-18T13:55:59;19.30;78.80
5576;DHT22;2810;50.134;8.626;2023-03-18T14:03:20;19.60;78.80
5576;DHT22;2810;50.134;8.626;2023-03-18T14:06:17;19.90;77.80
5576;DHT22;2810;50.134;8.626;2023-03-18T14:11:35;19.30;79.20
5576;DHT22;2810;50.134;8.626;2023-03-18T14:13:57;19.40;79.70
5576;DHT22;2810;50.134;8.626;2023-03-18T14:18:56;19.00;79.70
5576;DHT22;2810;50.134;8.626;2023-03-18T14:21:22;19.00;80.70
5576;DHT22;2810;50.134;8.626;2023-03-18T14:26:32;18.80;81.50
5576;DHT22;2810;50.134;8.626;2023-03-18T14:36:47;19.30;80.90
5576;DHT22;2810;50.134;8.626;2023-03-18T14:42:00;20.20;78.60
5576;DHT22;2810;50.134;8.626;2023-03-18T14:44:32;20.50;76.30
5576;DHT22;2810;50.134;8.626;2023-03-18T14:47:02;19.80;75.60
5576;DHT22;2810;50.134;8.626;2023-03-18T14:49:32;19.60;77.50
5576;DHT22;2810;50.134;8.626;2023-03-18T14:52:01;19.10;78.70
5576;DHT22;2810;50.134;8.626;2023-03-18T14:54:26;19.00;81.90
5576;DHT22;2810;50.134;8.626;2023-03-18T14:56:55;18.90;81.00
5576;DHT22;2810;50.134;8.626;2023-03-18T14:59:22;19.00;81.60
5576;DHT22;2810;50.134;8.626;2023-03-18T15:01:48;19.30;82.20
5576;DHT22;2810;50.134;8.626;2023-03-18T15:04:27;19.00;82.00
5576;DHT22;2810;50.134;8.626;2023-03-18T15:06:54;19.10;82.10
5576;DHT22;2810;50.134;8.626;2023-03-18T15:09:27;19.10;81.40
5576;DHT22;2810;50.134;8.626;2023-03-18T15:11:54;19.10;82.10
5576;DHT22;2810;50.134;8.626;2023-03-18T15:14:24;19.10;82.50
5576;DHT22;2810;50.134;8.626;2023-03-18T15:16:54;19.00;83.40
5576;DHT22;2810;50.134;8.626;2023-03-18T15:19:20;19.00;82.80
5576;DHT22;2810;50.134;8.626;2023-03-18T15:21:46;18.90;83.20
5576;DHT22;2810;50.134;8.626;2023-03-18T15:24:14;18.90;84.00
5576;DHT22;2810;50.134;8.626;2023-03-18T15:26:41;18.70;83.00
5576;DHT22;2810;50.134;8.626;2023-03-18T15:29:21;18.50;84.90
5576;DHT22;2810;50.134;8.626;2023-03-18T15:31:48;18.40;87.00
5576;DHT22;2810;50.134;8.626;2023-03-18T15:34:18;18.30;87.70
5576;DHT22;2810;50.134;8.626;2023-03-18T15:36:45;18.30;87.10
5576;DHT22;2810;50.134;8.626;2023-03-18T15:39:17;18.40;86.80
5576;DHT22;2810;50.134;8.626;2023-03-18T15:41:43;18.30;87.60
5576;DHT22;2810;50.134;8.626;2023-03-18T15:44:12;18.20;89.60
5576;DHT22;2810;50.134;8.626;2023-03-18T15:46:38;18.30;88.90
5576;DHT22;2810;50.134;8.626;2023-03-18T15:49:09;18.50;88.40
5576;DHT22;2810;50.134;8.626;2023-03-18T15:51:41;18.20;90.10
5576;DHT22;2810;50.134;8.626;2023-03-18T15:56:59;18.00;89.10
5576;DHT22;2810;50.134;8.626;2023-03-18T15:59:34;18.20;90.50
5576;DHT22;2810;50.134;8.626;2023-03-18T16:02:00;17.70;90.50
5576;DHT22;2810;50.134;8.626;2023-03-18T16:04:29;17.60;90.40
5576;DHT22;2810;50.134;8.626;2023-03-18T16:06:55;17.50;91.10
5576;DHT22;2810;50.134;8.626;2023-03-18T16:09:21;17.40;91.80
5576;DHT22;2810;50.134;8.626;2023-03-18T16:11:59;17.70;91.80
5576;DHT22;2810;50.134;8.626;2023-03-18T16:14:26;17.40;91.20
5576;DHT22;2810;50.134;8.626;2023-03-18T16:16:54;17.40;91.80
5576;DHT22;2810;50.134;8.626;2023-03-18T16:19:21;17.40;92.20
5576;DHT22;2810;50.134;8.626;2023-03-18T16:21:56;17.50;92.90
5576;DHT22;2810;50.134;8.626;2023-03-18T16:24:22;17.40;92.10
5576;DHT22;2810;50.134;8.626;2023-03-18T16:26:48;17.40;92.70
5576;DHT22;2810;50.134;8.626;2023-03-18T16:29:15;17.40;94.80
5576;DHT22;2810;50.134;8.626;2023-03-18T16:31:41;17.40;96.60
5576;DHT22;2810;50.134;8.626;2023-03-18T16:34:14;17.40;96.80
5576;DHT22;2810;50.134;8.626;2023-03-18T16:36:39;17.30;97.70
5576;DHT22;2810;50.134;8.626;2023-03-18T16:39:13;17.30;94.20
5576;DHT22;2810;50.134;8.626;2023-03-18T16:41:39;17.20;94.90
5576;DHT22;2810;50.134;8.626;2023-03-18T16:44:09;17.20;96.40
5576;DHT22;2810;50.134;8.626;2023-03-18T16:46:35;17.20;97.70
5576;DHT22;2810;50.134;8.626;2023-03-18T16:49:01;17.20;96.60
5576;DHT22;2810;50.134;8.626;2023-03-18T16:51:27;17.10;97.50
5576;DHT22;2810;50.134;8.626;2023-03-18T16:53:52;17.10;96.20
5576;DHT22;2810;50.134;8.626;2023-03-18T16:56:18;17.10;96.70
5576;DHT22;2810;50.134;8.626;2023-03-18T16:58:46;17.10;98.20
5576;DHT22;2810;50.134;8.626;2023-03-18T17:01:13;17.10;96.70
5576;DHT22;2810;50.134;8.626;2023-03-18T17:03:39;17.10;97.30
5576;DHT22;2810;50.134;8.626;2023-03-18T17:06:04;17.00;97.40
5576;DHT22;2810;50.134;8.626;2023-03-18T17:08:31;17.00;98.20
5576;DHT22;2810;50.134;8.626;2023-03-18T17:10:57;16.90;99.20
5576;DHT22;2810;50.134;8.626;2023-03-18T17:13:24;17.20;99.90
5576;DHT22;2810;50.134;8.626;2023-03-18T17:15:51;16.80;99.90
5576;DHT22;2810;50.134;8.626;2023-03-18T17:18:18;16.70;99.90
5576;DHT22;2810;50.134;8.626;2023-03-18T17:20:44;16.90;99.90
5576;DHT22;2810;50.134;8.626;2023-03-18T17:23:17;16.90;99.90
5576;DHT22;2810;50.134;8.626;2023-03-18T17:25:53;16.40;99.90
5576;DHT22;2810;50.134;8.626;2023-03-18T17:28:24;16.30;99.90
5576;DHT22;2810;50.134;8.626;2023-03-18T17:30:51;16.20;99.90
5576;DHT22;2810;50.134;8.626;2023-03-18T17:33:20;16.10;99.90
5576;DHT22;2810;50.134;8.626;2023-03-18T17:35:47;15.90;99.90
5576;DHT22;2810;50.134;8.626;2023-03-18T17:38:12;15.80;99.90
5576;DHT22;2810;50.134;8.626;2023-03-18T17:40:38;15.70;99.90
5576;DHT22;2810;50.134;8.626;2023-03-18T17:43:04;15.80;99.90
5576;DHT22;2810;50.134;8.626;2023-03-18T17:45:31;15.50;99.90
5576;DHT22;2810;50.134;8.626;2023-03-18T17:48:00;15.40;99.90